createdAt,value
2018-05-15T00:00:08.362Z,20.23
2018-05-15T00:02:37.280Z,20.40
2018-05-15T00:05:06.138Z,21.20
2018-05-15T00:07:34.997Z,22.10
2018-05-15T00:10:04.938Z,20.13
2018-05-15T00:12:33.784Z,22.37
2018-05-15T00:15:02.641Z,22.47
2018-05-15T00:17:31.505Z,22.53
2018-05-15T00:20:00.359Z,21.57
2018-05-15T00:22:29.226Z,22.13
2018-05-15T00:24:58.127Z,23.30
2018-05-15T00:27:27.028Z,19.80
2018-05-15T00:29:55.897Z,18.97
2018-05-15T00:32:24.782Z,22.67
2018-05-15T00:34:53.677Z,19.83
2018-05-15T00:37:22.531Z,21.70
2018-05-15T00:39:51.391Z,21.40
2018-05-15T00:42:20.264Z,21.40
2018-05-15T00:44:49.124Z,19.77
2018-05-15T00:47:18.031Z,19.00
2018-05-15T00:49:46.894Z,19.93
2018-05-15T00:52:15.747Z,22.10
2018-05-15T00:54:44.589Z,18.53
2018-05-15T00:57:13.454Z,17.67
2018-05-15T00:59:42.366Z,20.13
2018-05-15T01:02:11.232Z,20.00
2018-05-15T01:04:40.125Z,18.73
2018-05-15T01:07:09.058Z,18.27
2018-05-15T01:09:37.926Z,17.57
2018-05-15T01:12:06.777Z,18.83
2018-05-15T01:14:35.678Z,18.07
2018-05-15T01:17:04.526Z,19.37
2018-05-15T01:19:33.393Z,19.57
2018-05-15T01:22:02.299Z,18.73
2018-05-15T01:24:31.151Z,19.47
2018-05-15T01:27:00.022Z,17.73
2018-05-15T01:29:28.865Z,20.03
2018-05-15T01:31:58.528Z,19.00
2018-05-15T01:34:27.394Z,19.50
2018-05-15T01:36:56.262Z,19.63
2018-05-15T01:39:25.152Z,19.40
2018-05-15T01:41:54.074Z,19.97
2018-05-15T01:44:22.962Z,19.60
2018-05-15T01:46:51.820Z,19.77
2018-05-15T01:49:20.678Z,19.03
2018-05-15T01:51:49.546Z,18.20
2018-05-15T01:54:18.392Z,17.67
2018-05-15T01:56:47.258Z,19.10
2018-05-15T01:59:16.136Z,18.07
2018-05-15T02:01:45.034Z,16.87
2018-05-15T02:04:13.882Z,17.73
2018-05-15T02:06:43.370Z,17.43
2018-05-15T02:09:12.214Z,17.87
2018-05-15T02:11:41.065Z,18.00
2018-05-15T02:14:09.958Z,17.57
2018-05-15T02:16:38.794Z,18.47
2018-05-15T02:19:07.678Z,18.23
2018-05-15T02:21:36.930Z,17.67
2018-05-15T02:24:05.791Z,18.50
2018-05-15T02:26:34.642Z,18.63
2018-05-15T02:29:03.523Z,17.83
2018-05-15T02:31:32.425Z,17.20
2018-05-15T02:34:01.290Z,18.13
2018-05-15T02:36:30.159Z,17.77
2018-05-15T02:38:59.036Z,16.90
2018-05-15T02:41:27.887Z,16.47
2018-05-15T02:43:56.732Z,17.77
2018-05-15T02:46:25.599Z,17.63
2018-05-15T02:48:54.478Z,16.87
2018-05-15T02:51:23.345Z,15.57
2018-05-15T02:53:52.208Z,16.43
2018-05-15T02:56:21.054Z,17.83
2018-05-15T02:58:49.949Z,16.93
2018-05-15T03:01:19.051Z,16.53
2018-05-15T03:03:47.941Z,16.57
2018-05-15T03:06:16.805Z,16.67
2018-05-15T03:08:45.650Z,17.63
2018-05-15T03:11:14.518Z,17.03
2018-05-15T03:13:43.399Z,16.43
2018-05-15T03:16:12.255Z,17.63
2018-05-15T03:18:41.123Z,16.60
2018-05-15T03:21:09.991Z,15.83
2018-05-15T03:23:38.841Z,16.70
2018-05-15T03:26:07.717Z,17.00
2018-05-15T03:28:36.556Z,16.77
2018-05-15T03:31:05.420Z,16.90
2018-05-15T03:33:34.513Z,16.77
2018-05-15T03:36:03.407Z,16.27
2018-05-15T03:38:32.277Z,17.13
2018-05-15T03:41:01.123Z,17.57
2018-05-15T03:43:29.988Z,16.47
2018-05-15T03:45:58.851Z,15.70
2018-05-15T03:48:27.721Z,15.63
2018-05-15T03:50:56.575Z,17.13
2018-05-15T03:53:25.496Z,17.00
2018-05-15T03:55:54.363Z,15.73
2018-05-15T03:58:23.198Z,16.23
2018-05-15T04:00:57.896Z,16.53
2018-05-15T04:03:34.102Z,16.27
2018-05-15T04:06:08.827Z,16.80
2018-05-15T04:08:37.751Z,16.33
2018-05-15T04:11:06.718Z,16.60
2018-05-15T04:13:35.461Z,16.43
2018-05-15T04:16:04.321Z,16.37
2018-05-15T04:18:33.257Z,16.37
2018-05-15T04:21:02.113Z,13.80
2018-05-15T04:23:31.749Z,16.20
2018-05-15T04:26:00.806Z,15.67
2018-05-15T04:28:29.800Z,14.80
2018-05-15T04:30:58.555Z,17.20
2018-05-15T04:33:27.494Z,16.27
2018-05-15T04:35:56.358Z,18.00
2018-05-15T04:38:25.242Z,17.37
2018-05-15T04:40:54.154Z,15.93
2018-05-15T04:43:23.047Z,16.10
2018-05-15T04:45:51.856Z,17.30
2018-05-15T04:48:20.710Z,18.47
2018-05-15T04:50:49.602Z,15.20
2018-05-15T04:53:18.798Z,17.27
2018-05-15T04:55:47.723Z,15.43
2018-05-15T04:58:16.528Z,14.30
2018-05-15T05:00:45.402Z,16.10
2018-05-15T05:03:14.406Z,17.23
2018-05-15T05:05:43.244Z,16.50
2018-05-15T05:08:12.128Z,16.57
2018-05-15T05:10:44.948Z,17.60
2018-05-15T05:13:14.262Z,17.03
2018-05-15T05:15:43.150Z,18.07
2018-05-15T05:18:12.160Z,15.60
2018-05-15T05:20:41.332Z,18.17
2018-05-15T05:23:10.242Z,20.00
2018-05-15T05:25:46.905Z,15.80
2018-05-15T05:28:15.807Z,17.27
2018-05-15T05:30:44.642Z,18.57
2018-05-15T05:33:13.523Z,19.07
2018-05-15T05:35:42.417Z,19.30
2018-05-15T05:38:11.271Z,19.40
2018-05-15T05:40:40.163Z,20.17
2018-05-15T05:43:09.020Z,19.07
2018-05-15T05:45:38.831Z,19.40
2018-05-15T05:48:07.743Z,19.63
2018-05-15T05:50:36.739Z,18.07
2018-05-15T05:53:05.626Z,17.93
2018-05-15T05:55:34.523Z,17.63
2018-05-15T05:58:03.383Z,18.27
2018-05-15T06:00:32.238Z,17.83
2018-05-15T06:03:01.157Z,17.57
2018-05-15T06:05:30.014Z,15.70
2018-05-15T06:07:58.866Z,15.57
2018-05-15T06:10:27.743Z,14.73
2018-05-15T06:12:56.586Z,13.70
2018-05-15T06:15:25.447Z,13.53
2018-05-15T06:17:54.299Z,13.70
2018-05-15T06:20:23.167Z,13.20
2018-05-15T06:22:52.072Z,12.60
2018-05-15T06:25:20.950Z,13.17
2018-05-15T06:27:49.857Z,11.40
2018-05-15T06:30:18.805Z,11.03
2018-05-15T06:32:47.684Z,11.10
2018-05-15T06:35:16.601Z,10.40
2018-05-15T06:37:45.451Z,9.83
2018-05-15T06:40:14.326Z,10.67
2018-05-15T06:42:43.187Z,10.07
2018-05-15T06:45:12.045Z,10.00
2018-05-15T06:47:40.927Z,9.70
2018-05-15T06:50:09.773Z,9.73
2018-05-15T06:52:38.626Z,10.10
2018-05-15T06:55:07.625Z,9.23
2018-05-15T06:57:36.467Z,9.20
2018-05-15T07:00:05.307Z,9.57
2018-05-15T07:02:34.190Z,9.80
2018-05-15T07:05:03.100Z,8.33
2018-05-15T07:07:31.976Z,8.37
2018-05-15T07:10:00.847Z,8.87
2018-05-15T07:12:29.695Z,8.33
2018-05-15T07:14:58.600Z,8.27
2018-05-15T07:17:27.514Z,8.40
2018-05-15T07:19:56.350Z,8.13
2018-05-15T07:22:25.236Z,8.43
2018-05-15T07:24:54.130Z,8.40
2018-05-15T07:27:23.395Z,8.30
2018-05-15T07:29:52.224Z,8.00
2018-05-15T07:32:21.114Z,8.10
2018-05-15T07:34:50.043Z,8.40
2018-05-15T07:37:18.925Z,8.00
2018-05-15T07:39:47.795Z,8.33
2018-05-15T07:42:16.635Z,8.13
2018-05-15T07:44:45.525Z,7.70
2018-05-15T07:47:14.379Z,7.83
2018-05-15T07:49:43.230Z,8.20
2018-05-15T07:52:12.093Z,8.07
2018-05-15T07:54:40.957Z,8.37
2018-05-15T07:57:09.795Z,7.23
2018-05-15T07:59:38.671Z,7.43
2018-05-15T08:02:07.576Z,7.53
2018-05-15T08:04:36.423Z,7.40
2018-05-15T08:07:05.354Z,7.37
2018-05-15T08:09:34.208Z,6.53
2018-05-15T08:12:03.051Z,7.03
2018-05-15T08:14:31.916Z,7.80
2018-05-15T08:17:00.765Z,7.87
2018-05-15T08:19:29.610Z,7.40
2018-05-15T08:21:58.469Z,6.50
2018-05-15T08:24:27.295Z,5.97
2018-05-15T08:26:56.147Z,6.13
2018-05-15T08:29:25.017Z,6.57
2018-05-15T08:31:53.857Z,6.20
2018-05-15T08:34:22.701Z,6.73
2018-05-15T08:36:51.603Z,5.80
2018-05-15T08:39:20.453Z,5.90
2018-05-15T08:41:49.301Z,5.60
2018-05-15T08:44:18.177Z,5.67
2018-05-15T08:46:47.021Z,5.03
2018-05-15T08:49:15.900Z,5.40
2018-05-15T08:51:44.787Z,5.33
2018-05-15T08:54:13.632Z,5.00
2018-05-15T08:56:42.469Z,5.57
2018-05-15T08:59:11.312Z,5.50
2018-05-15T09:01:40.169Z,5.40
2018-05-15T09:04:09.019Z,5.07
2018-05-15T09:06:37.883Z,5.27
2018-05-15T09:09:06.727Z,4.43
2018-05-15T09:11:35.591Z,4.83
2018-05-15T09:14:04.483Z,5.13
2018-05-15T09:16:33.364Z,4.57
2018-05-15T09:19:02.189Z,4.77
2018-05-15T09:21:31.060Z,4.00
2018-05-15T09:23:59.901Z,4.53
2018-05-15T09:26:29.618Z,4.00
2018-05-15T09:28:58.484Z,4.30
2018-05-15T09:31:27.353Z,4.70
2018-05-15T09:33:56.189Z,4.20
2018-05-15T09:36:25.149Z,4.17
2018-05-15T09:38:53.937Z,3.80
2018-05-15T09:41:22.788Z,4.23
2018-05-15T09:43:54.501Z,4.50
2018-05-15T09:46:23.379Z,4.47
2018-05-15T09:48:52.283Z,4.13
2018-05-15T09:51:21.146Z,4.10
2018-05-15T09:53:50.012Z,4.23
2018-05-15T09:56:19.539Z,4.23
2018-05-15T09:58:48.387Z,4.60
2018-05-15T10:01:17.244Z,4.97
2018-05-15T10:03:46.122Z,4.23
2018-05-15T10:06:14.960Z,4.30
2018-05-15T10:08:43.796Z,4.10
2018-05-15T10:11:12.659Z,4.37
2018-05-15T10:13:41.504Z,4.80
2018-05-15T10:16:10.347Z,4.87
2018-05-15T10:18:39.232Z,4.90
2018-05-15T10:21:08.083Z,4.57
2018-05-15T10:23:36.922Z,4.53
2018-05-15T10:26:05.792Z,4.37
2018-05-15T10:28:34.638Z,4.77
2018-05-15T10:31:03.506Z,4.50
2018-05-15T10:33:32.358Z,4.53
2018-05-15T10:36:01.284Z,5.00
2018-05-15T10:38:30.139Z,4.70
2018-05-15T10:40:59.025Z,5.03
2018-05-15T10:43:27.874Z,5.30
2018-05-15T10:45:56.712Z,5.03
2018-05-15T10:48:25.619Z,5.10
2018-05-15T10:50:54.504Z,4.43
2018-05-15T10:53:24.234Z,4.80
2018-05-15T10:55:53.174Z,4.77
2018-05-15T10:58:22.011Z,4.93
2018-05-15T11:00:50.854Z,5.20
2018-05-15T11:03:19.724Z,5.73
2018-05-15T11:05:48.616Z,5.20
2018-05-15T11:08:17.510Z,5.07
2018-05-15T11:10:46.392Z,6.00
2018-05-15T11:13:15.248Z,5.60
2018-05-15T11:15:44.123Z,5.80
2018-05-15T11:18:19.635Z,6.00
2018-05-15T11:20:54.362Z,5.50
2018-05-15T11:23:29.171Z,5.50
2018-05-15T11:25:58.027Z,5.87
2018-05-15T11:28:26.865Z,5.77
2018-05-15T11:30:55.963Z,5.90
2018-05-15T11:33:24.824Z,6.00
2018-05-15T11:35:53.754Z,5.87
2018-05-15T11:38:22.540Z,6.00
2018-05-15T11:40:51.394Z,5.57
2018-05-15T11:43:20.266Z,5.47
2018-05-15T11:45:49.144Z,5.57
2018-05-15T11:48:18.421Z,5.13
2018-05-15T11:50:47.616Z,5.40
2018-05-15T11:53:16.590Z,5.70
2018-05-15T11:55:44.670Z,5.53
2018-05-15T11:58:13.565Z,5.73
2018-05-15T12:00:42.427Z,5.37
2018-05-15T12:03:11.267Z,5.40
2018-05-15T12:05:40.218Z,5.37
2018-05-15T12:08:09.138Z,5.23
2018-05-15T12:10:37.996Z,5.50
2018-05-15T12:13:06.825Z,5.30
2018-05-15T12:15:35.818Z,5.60
2018-05-15T12:18:04.688Z,4.87
2018-05-15T12:20:33.603Z,4.93
2018-05-15T12:23:02.447Z,5.97
2018-05-15T12:25:31.315Z,5.20
2018-05-15T12:28:00.230Z,5.35
2018-05-15T12:30:29.042Z,4.93
2018-05-15T12:32:57.884Z,4.80
2018-05-15T12:35:26.750Z,5.20
2018-05-15T12:37:55.647Z,5.20
2018-05-15T12:40:24.508Z,5.10
2018-05-15T12:42:53.469Z,5.03
2018-05-15T12:45:22.318Z,4.85
2018-05-15T12:47:51.223Z,4.82
2018-05-15T12:50:20.098Z,4.70
2018-05-15T12:52:48.967Z,4.93
2018-05-15T12:55:18.068Z,4.35
2018-05-15T12:57:46.898Z,4.18
2018-05-15T13:00:15.759Z,4.05
2018-05-15T13:02:45.374Z,4.77
2018-05-15T13:05:14.222Z,4.53
2018-05-15T13:07:43.057Z,5.12
2018-05-15T13:10:11.918Z,4.90
2018-05-15T13:12:40.756Z,4.73
2018-05-15T13:15:09.606Z,4.77
2018-05-15T13:17:38.483Z,4.47
2018-05-15T13:20:07.365Z,4.03
2018-05-15T13:22:36.233Z,4.57
2018-05-15T13:25:05.103Z,4.03
2018-05-15T13:27:34.002Z,3.90
2018-05-15T13:30:02.871Z,4.13
2018-05-15T13:32:31.730Z,4.07
2018-05-15T13:35:01.107Z,4.03
2018-05-15T13:37:29.943Z,4.60
2018-05-15T13:39:58.793Z,4.10
2018-05-15T13:42:27.656Z,3.90
2018-05-15T13:44:56.546Z,4.17
2018-05-15T13:47:25.382Z,3.77
2018-05-15T13:49:54.237Z,3.80
2018-05-15T13:52:23.110Z,3.22
2018-05-15T13:54:51.996Z,4.13
2018-05-15T13:57:20.850Z,3.67
2018-05-15T13:59:49.716Z,4.12
2018-05-15T14:02:18.604Z,3.47
2018-05-15T14:04:47.454Z,3.43
2018-05-15T14:07:16.343Z,3.80
2018-05-15T14:09:45.216Z,4.28
2018-05-15T14:12:14.060Z,3.87
2018-05-15T14:14:42.976Z,3.90
2018-05-15T14:17:11.814Z,4.00
2018-05-15T14:19:40.726Z,4.37
2018-05-15T14:22:09.588Z,4.23
2018-05-15T14:24:38.461Z,4.13
2018-05-15T14:27:07.298Z,3.83
2018-05-15T14:29:36.165Z,3.50
2018-05-15T14:32:05.024Z,3.80
2018-05-15T14:34:33.898Z,3.63
2018-05-15T14:37:02.847Z,4.07
2018-05-15T14:39:31.710Z,3.90
2018-05-15T14:42:06.403Z,3.67
2018-05-15T14:44:35.242Z,4.00
2018-05-15T14:47:04.099Z,4.30
2018-05-15T14:49:32.972Z,3.40
2018-05-15T14:52:02.006Z,3.67
2018-05-15T14:54:30.843Z,4.50
2018-05-15T14:56:59.702Z,4.70
2018-05-15T14:59:28.543Z,4.20
2018-05-15T15:01:57.391Z,4.40
2018-05-15T15:04:26.249Z,4.30
2018-05-15T15:06:55.117Z,4.03
2018-05-15T15:09:24.051Z,4.20
2018-05-15T15:11:52.900Z,4.03
2018-05-15T15:14:21.765Z,3.63
2018-05-15T15:16:50.633Z,4.53
2018-05-15T15:19:19.915Z,4.70
2018-05-15T15:21:48.789Z,4.87
2018-05-15T15:24:17.717Z,4.87
2018-05-15T15:26:46.573Z,4.40
2018-05-15T15:29:15.481Z,4.13
2018-05-15T15:31:44.326Z,4.00
2018-05-15T15:34:13.175Z,4.07
2018-05-15T15:36:42.075Z,4.20
2018-05-15T15:39:11.033Z,3.80
2018-05-15T15:41:39.897Z,4.70
2018-05-15T15:44:08.747Z,4.20
2018-05-15T15:46:37.587Z,4.23
2018-05-15T15:49:06.472Z,4.63
2018-05-15T15:51:35.331Z,4.40
2018-05-15T15:54:04.183Z,4.40
2018-05-15T15:56:33.085Z,4.00
2018-05-15T15:59:01.969Z,4.47
2018-05-15T16:01:30.844Z,4.00
2018-05-15T16:03:59.774Z,4.13
2018-05-15T16:06:28.576Z,4.40
2018-05-15T16:08:57.467Z,4.30
2018-05-15T16:11:26.535Z,4.20
2018-05-15T16:13:55.422Z,4.10
2018-05-15T16:16:24.299Z,4.33
2018-05-15T16:18:53.144Z,4.53
2018-05-15T16:21:21.982Z,4.30
2018-05-15T16:23:50.844Z,4.63
2018-05-15T16:26:19.680Z,4.17
2018-05-15T16:28:48.530Z,4.40
2018-05-15T16:31:17.433Z,4.87
2018-05-15T16:33:46.291Z,4.75
2018-05-15T16:36:15.165Z,4.90
2018-05-15T16:38:44.024Z,4.60
2018-05-15T16:41:13.010Z,4.43
2018-05-15T16:43:41.979Z,4.50
2018-05-15T16:46:10.822Z,4.67
2018-05-15T16:48:39.672Z,4.73
2018-05-15T16:51:08.547Z,4.40
2018-05-15T16:53:37.415Z,5.00
2018-05-15T16:56:06.356Z,4.60
2018-05-15T16:58:35.216Z,4.70
2018-05-15T17:01:04.064Z,4.37
2018-05-15T17:03:32.900Z,4.80
2018-05-15T17:06:01.812Z,5.00
2018-05-15T17:08:30.680Z,5.13
2018-05-15T17:10:59.542Z,4.73
2018-05-15T17:13:28.495Z,4.70
2018-05-15T17:15:57.919Z,3.90
2018-05-15T17:18:26.820Z,4.60
2018-05-15T17:20:55.697Z,4.70
2018-05-15T17:23:24.654Z,4.37
2018-05-15T17:25:53.553Z,4.57
2018-05-15T17:28:22.469Z,5.00
2018-05-15T17:30:51.433Z,4.87
2018-05-15T17:33:20.349Z,4.93
2018-05-15T17:35:49.253Z,4.73
2018-05-15T17:38:18.096Z,4.40
2018-05-15T17:40:47.004Z,4.67
2018-05-15T17:43:15.844Z,4.90
2018-05-15T17:45:44.690Z,4.80
2018-05-15T17:48:13.517Z,4.77
2018-05-15T17:50:42.420Z,4.20
2018-05-15T17:53:11.358Z,4.53
2018-05-15T17:55:40.160Z,4.60
2018-05-15T17:58:09.026Z,5.10
2018-05-15T18:00:37.868Z,5.00
2018-05-15T18:03:06.735Z,6.17
2018-05-15T18:05:35.579Z,4.60
2018-05-15T18:08:04.500Z,5.40
2018-05-15T18:10:33.385Z,5.80
2018-05-15T18:13:02.246Z,4.93
2018-05-15T18:15:31.148Z,6.77
2018-05-15T18:18:00.010Z,4.90
2018-05-15T18:20:28.854Z,5.53
2018-05-15T18:22:57.720Z,7.47
2018-05-15T18:25:26.623Z,5.73
2018-05-15T18:27:55.510Z,6.87
2018-05-15T18:30:24.353Z,5.90
2018-05-15T18:32:53.281Z,5.47
2018-05-15T18:35:22.181Z,7.30
2018-05-15T18:37:51.121Z,8.53
2018-05-15T18:40:19.995Z,8.40
2018-05-15T18:42:48.871Z,8.63
2018-05-15T18:45:17.792Z,6.73
2018-05-15T18:47:46.663Z,5.00
2018-05-15T18:50:15.492Z,7.57
2018-05-15T18:52:44.357Z,5.97
2018-05-15T18:55:13.182Z,7.20
2018-05-15T18:57:42.061Z,5.47
2018-05-15T19:00:10.993Z,6.73
2018-05-15T19:02:39.829Z,7.03
2018-05-15T19:05:08.703Z,5.83
2018-05-15T19:07:37.538Z,5.80
2018-05-15T19:10:06.395Z,7.77
2018-05-15T19:12:35.251Z,8.20
2018-05-15T19:15:04.135Z,6.53
2018-05-15T19:17:32.977Z,8.37
2018-05-15T19:20:01.890Z,6.80
2018-05-15T19:22:30.775Z,6.30
2018-05-15T19:24:59.905Z,10.77
2018-05-15T19:27:28.783Z,7.53
2018-05-15T19:29:57.699Z,10.20
2018-05-15T19:32:32.307Z,7.17
2018-05-15T19:35:01.154Z,6.80
2018-05-15T19:37:30.239Z,9.50
2018-05-15T19:39:59.136Z,9.93
2018-05-15T19:42:28.741Z,9.33
2018-05-15T19:47:33.340Z,7.23
2018-05-15T19:50:02.204Z,10.77
2018-05-15T19:52:31.243Z,7.97
2018-05-15T19:55:00.958Z,10.30
2018-05-15T19:57:29.853Z,8.57
2018-05-15T19:59:58.691Z,11.47
2018-05-15T20:02:27.560Z,10.17
2018-05-15T20:04:56.403Z,8.50
2018-05-15T20:07:25.300Z,9.20
2018-05-15T20:09:54.204Z,11.13
2018-05-15T20:12:23.046Z,8.17
2018-05-15T20:14:51.902Z,10.70
2018-05-15T20:17:20.906Z,10.00
2018-05-15T20:19:49.774Z,7.83
2018-05-15T20:22:19.255Z,8.10
2018-05-15T20:24:48.148Z,6.83
2018-05-15T20:27:23.886Z,10.47
2018-05-15T20:29:52.961Z,9.80
2018-05-15T20:32:22.585Z,8.00
2018-05-15T20:34:51.557Z,8.47
2018-05-15T20:37:20.470Z,9.07
2018-05-15T20:39:49.368Z,9.77
2018-05-15T20:42:18.585Z,8.37
2018-05-15T20:44:47.439Z,7.30
2018-05-15T20:47:16.291Z,8.73
2018-05-15T20:49:50.996Z,7.33
2018-05-15T20:52:20.599Z,8.20
2018-05-15T20:54:49.487Z,8.80
2018-05-15T20:57:19.581Z,10.73
2018-05-15T20:59:49.006Z,7.73
2018-05-15T21:02:18.981Z,7.33
2018-05-15T21:07:44.447Z,6.10
2018-05-15T21:10:13.513Z,8.10
2018-05-15T21:12:42.358Z,7.83
2018-05-15T21:15:11.276Z,7.93
2018-05-15T21:17:40.695Z,8.47
2018-05-15T21:20:10.171Z,7.80
2018-05-15T21:22:39.211Z,8.80
2018-05-15T21:27:50.065Z,8.67
2018-05-15T21:30:20.690Z,7.87
2018-05-15T21:32:52.261Z,8.10
2018-05-15T21:35:21.131Z,7.63
2018-05-15T21:37:50.811Z,8.83
2018-05-15T21:40:21.135Z,7.90
2018-05-15T21:42:50.051Z,8.27
2018-05-15T21:45:19.105Z,8.83
2018-05-15T21:47:47.971Z,7.50
2018-05-15T21:50:16.914Z,9.10
2018-05-15T21:52:45.780Z,8.70
2018-05-15T21:55:14.644Z,8.70
2018-05-15T21:57:43.489Z,8.70
2018-05-15T22:00:12.344Z,7.73
2018-05-15T22:02:41.180Z,8.93
2018-05-15T22:05:10.056Z,10.97
2018-05-15T22:07:38.954Z,8.03
2018-05-15T22:10:07.813Z,10.07
2018-05-15T22:12:42.346Z,9.50
2018-05-15T22:15:17.003Z,8.20
2018-05-15T22:17:51.738Z,8.43
2018-05-15T22:20:26.312Z,8.50
2018-05-15T22:22:54.926Z,9.50
2018-05-15T22:25:23.790Z,8.30
2018-05-15T22:27:52.634Z,9.33
2018-05-15T22:30:21.494Z,9.77
2018-05-15T22:32:50.340Z,7.60
2018-05-15T22:35:19.348Z,9.30
2018-05-15T22:37:48.215Z,9.97
2018-05-15T22:40:17.258Z,9.70
2018-05-15T22:42:46.104Z,10.53
2018-05-15T22:45:15.010Z,8.97
2018-05-15T22:47:43.842Z,9.00
2018-05-15T22:50:12.720Z,8.10
2018-05-15T22:52:41.578Z,10.00
2018-05-15T22:55:10.435Z,10.10
2018-05-15T22:57:39.275Z,8.97
2018-05-15T23:00:08.166Z,10.33
2018-05-15T23:02:37.108Z,10.30
2018-05-15T23:05:05.994Z,9.83
2018-05-15T23:07:35.850Z,8.60
2018-05-15T23:10:04.759Z,10.53
2018-05-15T23:12:33.617Z,10.13
2018-05-15T23:15:02.504Z,10.90
2018-05-15T23:17:31.350Z,9.90
2018-05-15T23:20:00.207Z,11.47
2018-05-15T23:22:34.934Z,10.90
2018-05-15T23:25:03.811Z,10.10
2018-05-15T23:27:32.681Z,24.27
2018-05-15T23:30:01.549Z,9.83
2018-05-15T23:32:30.397Z,10.57
2018-05-15T23:34:59.379Z,12.00
2018-05-15T23:37:28.254Z,9.77
2018-05-15T23:39:57.105Z,10.17
2018-05-15T23:42:26.075Z,9.80
2018-05-15T23:44:54.901Z,10.13
2018-05-15T23:47:23.757Z,13.03
2018-05-15T23:49:52.615Z,11.33
2018-05-15T23:52:21.488Z,10.27
2018-05-15T23:54:50.332Z,10.97
2018-05-15T23:57:19.182Z,11.20
2018-05-15T23:59:48.050Z,11.07
